Helen Parker — WDC6715 — position and weather

sailwx.info

Track history (hours):
 
Tides and Currents Weather Stations Pressure Air Temp Water Temp Dewpoint Dewpoint Depression Visibility Wind Speed Wind Dir Waves Ship Positions

Helen Parker

Owner: Brewster Marine LLC, Forked River, NJ. More information available from US FCC via Universal Licensing System and Coast Guard Vessel Documentation Center.

Last reported at 2018-May-22 01:04 UTC. Time now 2018-May-23 22:13 UTC.
Position N 40°39' W 074°10'.

Length 14 m.

Type: Other ship. MMSI: 367060270.

Date/timePositionNaut miles runAvg speedWind from/ knotsBaromVisibWave heightAir tempDewpointWater temp
2018-May-22 01:04N 40°39' W 074°10'0 2.8
2018-May-22 01:00N 40°39' W 074°10'3 6.4
2018-May-22 00:30N 40°39' W 074°06'4 8.1
2018-May-22 00:00N 40°41' W 074°02'1 2.5
2018-May-21 23:30N 40°42' W 074°01'2 3.3
2018-May-21 23:00N 40°44' W 074°02'2 3.0
2018-May-21 22:30N 40°42' W 074°01'1 2.3
2018-May-21 22:00N 40°41' W 074°00'1 1.5
2018-May-21 21:30N 40°42' W 074°01'2 3.6
2018-May-21 21:00N 40°44' W 074°02'0 0.4
2018-May-21 20:30N 40°44' W 074°02'0 0.0
2018-May-21 20:00N 40°44' W 074°02'0 0.0
2018-May-21 19:30N 40°44' W 074°02'0 0.1
2018-May-21 19:00N 40°44' W 074°02'0 0.0
2018-May-21 18:30N 40°44' W 074°02'0 0.6
2018-May-21 18:00N 40°43' W 074°02'3 5.5
2018-May-21 17:30N 40°41' W 074°03'2 4.8
2018-May-21 17:00N 40°39' W 074°05'2 4.1
2018-May-21 16:29N 40°39' W 074°08'2 4.3
2018-May-21 16:00N 40°39' W 074°10'1 1.9
2018-May-21 15:30N 40°39' W 074°11'2 3.2
2018-May-21 14:55N 40°39' W 074°09'3 6.7
2018-May-21 14:30N 40°39' W 074°05'3 6.8
2018-May-21 14:00N 40°41' W 074°02'3 6.7
2018-May-21 13:30N 40°45' W 074°01'0 0.0
2018-May-21 13:00N 40°45' W 074°01'0 0.0
2018-May-21 12:30N 40°45' W 074°01'0 0.0
2018-May-21 12:00N 40°45' W 074°01'2 4.6
2018-May-21 11:30N 40°42' W 074°02'3 5.5
2018-May-21 10:59N 40°40' W 074°04'4 7.9
2018-May-21 10:30N 40°39' W 074°08'2 4.4
2018-May-21 10:00N 40°39' W 074°11'0 0.2
2018-May-21 09:30N 40°39' W 074°12'0 0.1
2018-May-21 08:56N 40°39' W 074°12'  
2018-May-17 20:54N 40°39' W 074°10'3 7.1
2018-May-17 20:30N 40°39' W 074°07'4 7.7
2018-May-17 20:01N 40°40' W 074°02'0 0.5
2018-May-17 19:31N 40°40' W 074°02'2 3.2
2018-May-17 19:00N 40°40' W 074°04'3 5.5
2018-May-17 18:29N 40°39' W 074°07'3 5.2
2018-May-17 17:57N 40°39' W 074°11'0 0.7
2018-May-17 17:30N 40°39' W 074°12'0 0.1
2018-May-17 16:58N 40°39' W 074°11'0 0.0
2018-May-17 16:10N 40°39' W 074°11'0 0.1
2018-May-17 16:00N 40°39' W 074°11'1 0.0
2018-May-15 18:15N 40°39' W 074°10'1 3.8
2018-May-15 17:59N 40°39' W 074°09'3 6.8
2018-May-15 17:30N 40°39' W 074°05'4 8.5
2018-May-15 17:00N 40°42' W 074°00'2 3.0
2018-May-15 16:30N 40°42' W 073°59'0 0.1
2018-May-15 16:00N 40°42' W 073°59'1 1.4
2018-May-15 15:30N 40°42' W 073°59'3 5.6
2018-May-15 15:00N 40°40' W 074°02'4 7.8
2018-May-15 14:29N 40°39' W 074°07'3 0.1
2018-May-14 20:07N 40°39' W 074°10'0 0.0
2018-May-14 20:00N 40°39' W 074°10'0 0.7
2018-May-14 19:30N 40°39' W 074°10'4 8.4
2018-May-14 19:00N 40°39' W 074°05'4 7.4
2018-May-14 18:30N 40°41' W 074°00'2 4.1
2018-May-14 18:00N 40°40' W 074°03'3 6.1
2018-May-14 17:30N 40°39' W 074°06'4 6.9
2018-May-14 16:57N 40°39' W 074°11'0 0.4
2018-May-14 16:30N 40°39' W 074°11'2 4.4
2018-May-14 16:00N 40°39' W 074°09'2 3.2
2018-May-14 15:30N 40°39' W 074°06'1 2.9
2018-May-14 15:00N 40°39' W 074°05'2 4.6
2018-May-14 14:30N 40°41' W 074°02'2 4.8
2018-May-14 14:00N 40°43' W 074°02'0 1.0
2018-May-14 13:30N 40°44' W 074°02'0 0.1
2018-May-14 13:00N 40°44' W 074°02'0 0.2
2018-May-14 12:30N 40°44' W 074°02'0 0.0
2018-May-14 12:00N 40°44' W 074°02'0 0.2
2018-May-14 11:30N 40°44' W 074°02'2 4.0
2018-May-14 11:00N 40°42' W 074°02'3 6.0
2018-May-14 10:30N 40°39' W 074°04'3 5.0
2018-May-14 09:59N 40°39' W 074°08'2 3.4
2018-May-14 09:29N 40°39' W 074°10'1 2.5
2018-May-14 08:59N 40°39' W 074°12'1 2.4
2018-May-14 08:30N 40°39' W 074°10'  
Track history (hours):
 
Tides and Currents Weather Stations Pressure Air Temp Water Temp Dewpoint Dewpoint Depression Visibility Wind Speed Wind Dir Waves Ship Positions

Helen Parker

Owner: Brewster Marine LLC, Forked River, NJ. More information available from US FCC via Universal Licensing System and Coast Guard Vessel Documentation Center.

Last reported at 2018-May-22 01:04 UTC. Time now 2018-May-23 22:13 UTC.
Position N 40°39' W 074°10'.

Length 14 m.

Type: Other ship. MMSI: 367060270.

Date/timePositionNaut miles runAvg speedWind from/ knotsBaromVisibWave heightAir tempDewpointWater temp
2018-May-22 01:04N 40°39' W 074°10'0 2.8
2018-May-22 01:00N 40°39' W 074°10'3 6.4
2018-May-22 00:30N 40°39' W 074°06'4 8.1
2018-May-22 00:00N 40°41' W 074°02'1 2.5
2018-May-21 23:30N 40°42' W 074°01'2 3.3
2018-May-21 23:00N 40°44' W 074°02'2 3.0
2018-May-21 22:30N 40°42' W 074°01'1 2.3
2018-May-21 22:00N 40°41' W 074°00'1 1.5
2018-May-21 21:30N 40°42' W 074°01'2 3.6
2018-May-21 21:00N 40°44' W 074°02'0 0.4
2018-May-21 20:30N 40°44' W 074°02'0 0.0
2018-May-21 20:00N 40°44' W 074°02'0 0.0
2018-May-21 19:30N 40°44' W 074°02'0 0.1
2018-May-21 19:00N 40°44' W 074°02'0 0.0
2018-May-21 18:30N 40°44' W 074°02'0 0.6
2018-May-21 18:00N 40°43' W 074°02'3 5.5
2018-May-21 17:30N 40°41' W 074°03'2 4.8
2018-May-21 17:00N 40°39' W 074°05'2 4.1
2018-May-21 16:29N 40°39' W 074°08'2 4.3
2018-May-21 16:00N 40°39' W 074°10'1 1.9
2018-May-21 15:30N 40°39' W 074°11'2 3.2
2018-May-21 14:55N 40°39' W 074°09'3 6.7
2018-May-21 14:30N 40°39' W 074°05'3 6.8
2018-May-21 14:00N 40°41' W 074°02'3 6.7
2018-May-21 13:30N 40°45' W 074°01'0 0.0
2018-May-21 13:00N 40°45' W 074°01'0 0.0
2018-May-21 12:30N 40°45' W 074°01'0 0.0
2018-May-21 12:00N 40°45' W 074°01'2 4.6
2018-May-21 11:30N 40°42' W 074°02'3 5.5
2018-May-21 10:59N 40°40' W 074°04'4 7.9
2018-May-21 10:30N 40°39' W 074°08'2 4.4
2018-May-21 10:00N 40°39' W 074°11'0 0.2
2018-May-21 09:30N 40°39' W 074°12'0 0.1
2018-May-21 08:56N 40°39' W 074°12'  
2018-May-17 20:54N 40°39' W 074°10'3 7.1
2018-May-17 20:30N 40°39' W 074°07'4 7.7
2018-May-17 20:01N 40°40' W 074°02'0 0.5
2018-May-17 19:31N 40°40' W 074°02'2 3.2
2018-May-17 19:00N 40°40' W 074°04'3 5.5
2018-May-17 18:29N 40°39' W 074°07'3 5.2
2018-May-17 17:57N 40°39' W 074°11'0 0.7
2018-May-17 17:30N 40°39' W 074°12'0 0.1
2018-May-17 16:58N 40°39' W 074°11'0 0.0
2018-May-17 16:10N 40°39' W 074°11'0 0.1
2018-May-17 16:00N 40°39' W 074°11'1 0.0
2018-May-15 18:15N 40°39' W 074°10'1 3.8
2018-May-15 17:59N 40°39' W 074°09'3 6.8
2018-May-15 17:30N 40°39' W 074°05'4 8.5
2018-May-15 17:00N 40°42' W 074°00'2 3.0
2018-May-15 16:30N 40°42' W 073°59'0 0.1
2018-May-15 16:00N 40°42' W 073°59'1 1.4
2018-May-15 15:30N 40°42' W 073°59'3 5.6
2018-May-15 15:00N 40°40' W 074°02'4 7.8
2018-May-15 14:29N 40°39' W 074°07'3 0.1
2018-May-14 20:07N 40°39' W 074°10'0 0.0
2018-May-14 20:00N 40°39' W 074°10'0 0.7
2018-May-14 19:30N 40°39' W 074°10'4 8.4
2018-May-14 19:00N 40°39' W 074°05'4 7.4
2018-May-14 18:30N 40°41' W 074°00'2 4.1
2018-May-14 18:00N 40°40' W 074°03'3 6.1
2018-May-14 17:30N 40°39' W 074°06'4 6.9
2018-May-14 16:57N 40°39' W 074°11'0 0.4
2018-May-14 16:30N 40°39' W 074°11'2 4.4
2018-May-14 16:00N 40°39' W 074°09'2 3.2
2018-May-14 15:30N 40°39' W 074°06'1 2.9
2018-May-14 15:00N 40°39' W 074°05'2 4.6
2018-May-14 14:30N 40°41' W 074°02'2 4.8
2018-May-14 14:00N 40°43' W 074°02'0 1.0
2018-May-14 13:30N 40°44' W 074°02'0 0.1
2018-May-14 13:00N 40°44' W 074°02'0 0.2
2018-May-14 12:30N 40°44' W 074°02'0 0.0
2018-May-14 12:00N 40°44' W 074°02'0 0.2
2018-May-14 11:30N 40°44' W 074°02'2 4.0
2018-May-14 11:00N 40°42' W 074°02'3 6.0
2018-May-14 10:30N 40°39' W 074°04'3 5.0
2018-May-14 09:59N 40°39' W 074°08'2 3.4
2018-May-14 09:29N 40°39' W 074°10'1 2.5
2018-May-14 08:59N 40°39' W 074°12'1 2.4
2018-May-14 08:30N 40°39' W 074°10'  

Dump ship's entire track history